createdAt,value
2018-01-22T00:02:22.805Z,83.17
2018-01-22T00:04:50.315Z,83.42
2018-01-22T00:07:17.840Z,83.03
2018-01-22T00:09:45.297Z,82.93
2018-01-22T00:12:12.821Z,82.71
2018-01-22T00:14:40.306Z,82.73
2018-01-22T00:17:08.062Z,82.64
2018-01-22T00:19:35.583Z,82.36
2018-01-22T00:22:03.069Z,82.53
2018-01-22T00:24:30.582Z,82.79
2018-01-22T00:26:58.103Z,81.94
2018-01-22T00:29:25.610Z,81.99
2018-01-22T00:31:53.116Z,82.11
2018-01-22T00:34:20.584Z,81.33
2018-01-22T00:36:48.061Z,81.82
2018-01-22T00:39:15.537Z,82.39
2018-01-22T00:41:43.029Z,81.82
2018-01-22T00:44:10.465Z,81.96
2018-01-22T00:46:37.969Z,81.44
2018-01-22T00:49:05.445Z,81.74
2018-01-22T00:51:32.997Z,82.23
2018-01-22T00:54:00.469Z,82.05
2018-01-22T00:56:27.914Z,81.67
2018-01-22T00:58:55.375Z,81.50
2018-01-22T01:01:22.892Z,82.07
2018-01-22T01:03:50.355Z,81.93
2018-01-22T01:06:17.917Z,81.79
2018-01-22T01:08:45.388Z,81.81
2018-01-22T01:11:12.862Z,81.29
2018-01-22T01:13:40.398Z,81.48
2018-01-22T01:16:07.859Z,81.35
2018-01-22T01:18:35.442Z,81.37
2018-01-22T01:21:02.927Z,81.11
2018-01-22T01:23:31.190Z,80.85
2018-01-22T01:25:58.701Z,81.55
2018-01-22T01:28:26.159Z,81.12
2018-01-22T01:30:53.718Z,81.30
2018-01-22T01:33:21.218Z,81.19
2018-01-22T01:35:48.660Z,81.13
2018-01-22T01:38:16.113Z,81.21
2018-01-22T01:40:43.592Z,81.70
2018-01-22T01:43:11.102Z,81.90
2018-01-22T01:45:38.644Z,81.23
2018-01-22T01:48:06.147Z,80.56
2018-01-22T01:50:33.610Z,80.53
2018-01-22T01:53:01.137Z,81.25
2018-01-22T01:55:28.632Z,80.90
2018-01-22T01:57:56.063Z,79.92
2018-01-22T02:00:37.887Z,79.57
2018-01-22T02:03:05.351Z,80.05
2018-01-22T02:05:32.812Z,80.35
2018-01-22T02:08:01.399Z,79.87
2018-01-22T02:10:28.917Z,79.32
2018-01-22T02:12:56.360Z,79.47
2018-01-22T02:15:23.818Z,80.74
2018-01-22T02:17:51.293Z,80.52
2018-01-22T02:20:18.864Z,80.15
2018-01-22T02:22:46.334Z,79.37
2018-01-22T02:25:13.779Z,79.79
2018-01-22T02:27:41.248Z,79.33
2018-01-22T02:30:08.723Z,79.89
2018-01-22T02:32:36.175Z,79.79
2018-01-22T02:35:04.488Z,78.92
2018-01-22T02:37:32.177Z,78.67
2018-01-22T02:39:59.668Z,78.37
2018-01-22T02:42:27.118Z,78.99
2018-01-22T02:44:54.647Z,78.76
2018-01-22T02:47:22.136Z,78.70
2018-01-22T02:49:49.607Z,77.97
2018-01-22T02:52:17.152Z,78.24
2018-01-22T02:54:44.612Z,78.17
2018-01-22T02:57:12.111Z,77.72
2018-01-22T02:59:39.694Z,77.47
2018-01-22T03:02:07.184Z,77.89
2018-01-22T03:04:34.681Z,77.64
2018-01-22T03:07:02.149Z,78.76
2018-01-22T03:09:29.665Z,78.53
2018-01-22T03:11:57.143Z,79.21
2018-01-22T03:14:25.080Z,79.19
2018-01-22T03:16:52.548Z,78.28
2018-01-22T03:19:20.019Z,77.57
2018-01-22T03:21:47.488Z,77.70
2018-01-22T03:24:14.961Z,77.72
2018-01-22T03:26:42.417Z,76.77
2018-01-22T03:29:09.908Z,78.15
2018-01-22T03:31:37.404Z,77.17
2018-01-22T03:34:04.893Z,77.08
2018-01-22T03:36:32.374Z,77.71
2018-01-22T03:39:00.106Z,77.30
2018-01-22T03:41:27.530Z,76.94
2018-01-22T03:43:55.036Z,76.83
2018-01-22T03:46:22.552Z,77.44
2018-01-22T03:48:50.014Z,77.30
2018-01-22T03:51:17.555Z,77.49
2018-01-22T03:53:45.039Z,76.99
2018-01-22T03:56:12.508Z,77.44
2018-01-22T03:58:39.973Z,76.79
2018-01-22T04:01:07.451Z,76.98
2018-01-22T04:03:34.934Z,77.42
2018-01-22T04:06:02.478Z,76.70
2018-01-22T04:08:29.946Z,76.95
2018-01-22T04:10:57.460Z,76.93
2018-01-22T04:13:24.946Z,77.09
2018-01-22T04:15:52.418Z,77.11
2018-01-22T04:18:20.207Z,77.24
2018-01-22T04:20:47.674Z,77.49
2018-01-22T04:23:15.136Z,77.33
2018-01-22T04:25:42.594Z,77.69
2018-01-22T04:28:10.047Z,77.38
2018-01-22T04:30:37.516Z,77.05
2018-01-22T04:33:04.956Z,77.37
2018-01-22T04:35:32.410Z,76.82
2018-01-22T04:38:00.634Z,76.43
2018-01-22T04:40:28.622Z,76.84
2018-01-22T04:42:56.781Z,76.92
2018-01-22T04:45:24.384Z,76.63
2018-01-22T04:47:51.837Z,76.98
2018-01-22T04:50:19.320Z,76.90
2018-01-22T04:52:46.902Z,76.67
2018-01-22T04:55:14.399Z,76.61
2018-01-22T04:57:42.046Z,76.72
2018-01-22T05:00:09.606Z,76.48
2018-01-22T05:02:37.109Z,76.16
2018-01-22T05:05:04.603Z,77.79
2018-01-22T05:07:32.068Z,77.38
2018-01-22T05:09:59.558Z,77.00
2018-01-22T05:12:26.986Z,76.45
2018-01-22T05:14:54.442Z,75.93
2018-01-22T05:17:22.012Z,76.22
2018-01-22T05:19:49.552Z,76.74
2018-01-22T05:22:17.049Z,77.10
2018-01-22T05:24:44.570Z,76.79
2018-01-22T05:27:12.157Z,76.22
2018-01-22T05:29:39.618Z,76.81
2018-01-22T05:32:07.119Z,76.81
2018-01-22T05:34:34.599Z,76.38
2018-01-22T05:37:02.039Z,76.03
2018-01-22T05:39:29.522Z,76.27
2018-01-22T05:41:57.009Z,76.44
2018-01-22T05:44:24.472Z,76.72
2018-01-22T05:46:51.946Z,76.30
2018-01-22T05:49:19.453Z,76.39
2018-01-22T05:51:46.904Z,75.79
2018-01-22T05:54:14.394Z,76.72
2018-01-22T05:56:41.879Z,76.99
2018-01-22T05:59:09.321Z,77.86
2018-01-22T06:01:36.804Z,76.71
2018-01-22T06:04:04.532Z,77.31
2018-01-22T06:06:31.993Z,76.06
2018-01-22T06:08:59.454Z,76.16
2018-01-22T06:11:26.920Z,76.50
2018-01-22T06:13:54.385Z,76.50
2018-01-22T06:16:21.953Z,77.14
2018-01-22T06:18:49.511Z,77.30
2018-01-22T06:21:16.954Z,77.61
2018-01-22T06:23:45.147Z,77.45
2018-01-22T06:26:12.591Z,76.79
2018-01-22T06:28:40.040Z,76.09
2018-01-22T06:31:07.502Z,76.37
2018-01-22T06:33:35.049Z,76.27
2018-01-22T06:36:02.506Z,75.80
2018-01-22T06:38:30.029Z,76.79
2018-01-22T06:40:57.633Z,76.07
2018-01-22T06:43:25.169Z,77.98
2018-01-22T06:45:52.646Z,75.80
2018-01-22T06:48:20.143Z,74.96
2018-01-22T06:50:47.840Z,74.28
2018-01-22T06:53:15.484Z,74.67
2018-01-22T06:55:42.953Z,75.02
2018-01-22T06:58:13.071Z,75.31
2018-01-22T07:00:40.515Z,74.90
2018-01-22T07:03:08.060Z,74.86
2018-01-22T07:05:35.528Z,75.35
2018-01-22T07:08:03.053Z,74.69
2018-01-22T07:10:30.594Z,75.64
2018-01-22T07:12:58.109Z,76.03
2018-01-22T07:15:25.587Z,76.35
2018-01-22T07:17:53.090Z,75.97
2018-01-22T07:20:20.775Z,75.38
2018-01-22T07:22:48.239Z,75.11
2018-01-22T07:25:16.480Z,75.24
2018-01-22T07:27:44.035Z,74.79
2018-01-22T07:30:11.729Z,75.19
2018-01-22T07:32:39.365Z,74.78
2018-01-22T07:35:06.888Z,74.76
2018-01-22T07:37:34.579Z,74.20
2018-01-22T07:40:02.038Z,74.99
2018-01-22T07:42:29.596Z,74.33
2018-01-22T07:44:57.046Z,74.15
2018-01-22T07:47:24.575Z,73.85
2018-01-22T07:49:52.064Z,74.72
2018-01-22T07:52:19.586Z,74.25
2018-01-22T07:54:47.028Z,73.15
2018-01-22T07:57:14.669Z,72.80
2018-01-22T07:59:42.238Z,73.85
2018-01-22T08:02:09.760Z,73.27
2018-01-22T08:04:37.479Z,73.98
2018-01-22T08:07:05.119Z,74.09
2018-01-22T08:09:32.590Z,74.35
2018-01-22T08:12:00.121Z,74.23
2018-01-22T08:14:27.720Z,74.18
2018-01-22T08:16:55.408Z,73.82
2018-01-22T08:19:23.294Z,73.57
2018-01-22T08:21:50.774Z,74.43
2018-01-22T08:24:18.229Z,73.98
2018-01-22T08:26:45.849Z,73.94
2018-01-22T08:29:13.349Z,73.99
2018-01-22T08:31:40.859Z,73.69
2018-01-22T08:34:08.817Z,72.88
2018-01-22T08:36:37.091Z,73.87
2018-01-22T08:39:04.720Z,73.64
2018-01-22T08:41:41.813Z,73.48
2018-01-22T08:44:09.514Z,73.63
2018-01-22T08:46:37.164Z,73.46
2018-01-22T08:49:04.858Z,73.50
2018-01-22T08:51:37.331Z,72.08
2018-01-22T08:54:04.890Z,72.92
2018-01-22T08:56:32.419Z,71.45
2018-01-22T08:58:59.879Z,72.80
2018-01-22T09:01:27.343Z,70.87
2018-01-22T09:03:54.909Z,71.70
2018-01-22T09:06:22.832Z,71.43
2018-01-22T09:08:50.330Z,71.75
2018-01-22T09:11:19.089Z,70.82
2018-01-22T09:13:46.600Z,70.98
2018-01-22T09:16:14.250Z,71.40
2018-01-22T09:18:42.530Z,71.44
2018-01-22T09:21:10.147Z,71.72
2018-01-22T09:23:37.701Z,70.66
2018-01-22T09:26:05.250Z,71.85
2018-01-22T09:28:32.764Z,72.02
2018-01-22T09:31:00.277Z,71.95
2018-01-22T09:33:27.863Z,71.36
2018-01-22T09:35:55.377Z,72.32
2018-01-22T09:38:22.953Z,72.61
2018-01-22T09:40:50.513Z,73.23
2018-01-22T09:43:18.017Z,72.88
2018-01-22T09:45:45.652Z,72.87
2018-01-22T09:48:13.312Z,73.46
2018-01-22T09:50:40.798Z,73.27
2018-01-22T09:53:08.268Z,73.48
2018-01-22T09:55:35.790Z,74.17
2018-01-22T09:58:03.259Z,74.35
2018-01-22T10:00:30.719Z,74.88
2018-01-22T10:02:58.192Z,75.00
2018-01-22T10:05:25.689Z,75.38
2018-01-22T10:07:53.358Z,75.72
2018-01-22T10:10:20.909Z,76.13
2018-01-22T10:12:48.393Z,76.90
2018-01-22T10:15:15.939Z,77.16
2018-01-22T10:17:43.417Z,76.42
2018-01-22T10:20:10.971Z,75.71
2018-01-22T10:22:38.483Z,76.57
2018-01-22T10:25:06.030Z,77.61
2018-01-22T10:27:33.574Z,77.04
2018-01-22T10:30:01.058Z,76.97
2018-01-22T10:32:28.597Z,76.91
2018-01-22T10:34:56.041Z,77.41
2018-01-22T10:37:23.562Z,77.82
2018-01-22T10:39:51.068Z,77.31
2018-01-22T10:42:18.598Z,77.88
2018-01-22T10:44:46.139Z,77.46
2018-01-22T10:47:14.905Z,78.26
2018-01-22T10:49:42.427Z,78.88
2018-01-22T10:52:09.898Z,77.98
2018-01-22T10:54:37.416Z,78.61
2018-01-22T10:57:05.359Z,77.88
2018-01-22T10:59:32.814Z,77.48
2018-01-22T11:02:00.681Z,77.39
2018-01-22T11:04:28.241Z,77.88
2018-01-22T11:06:55.707Z,78.07
2018-01-22T11:09:23.163Z,77.21
2018-01-22T11:11:50.657Z,77.68
2018-01-22T11:14:18.169Z,77.40
2018-01-22T11:16:45.645Z,77.10
2018-01-22T11:19:13.136Z,76.21
2018-01-22T11:21:40.705Z,76.37
2018-01-22T11:24:08.236Z,76.00
2018-01-22T11:26:35.676Z,76.00
2018-01-22T11:29:03.368Z,76.19
2018-01-22T11:31:30.836Z,76.21
2018-01-22T11:33:58.454Z,76.25
2018-01-22T11:36:25.956Z,76.10
2018-01-22T11:38:53.448Z,77.18
2018-01-22T11:41:20.929Z,75.97
2018-01-22T11:43:48.427Z,76.73
2018-01-22T11:46:15.996Z,75.93
2018-01-22T11:48:43.563Z,75.53
2018-01-22T11:51:11.071Z,75.72
2018-01-22T11:53:38.523Z,75.07
2018-01-22T11:56:06.017Z,75.44
2018-01-22T11:58:33.611Z,74.57
2018-01-22T12:01:01.370Z,75.25
2018-01-22T12:03:28.935Z,74.32
2018-01-22T12:05:56.433Z,74.00
2018-01-22T12:08:24.895Z,74.03
2018-01-22T12:10:52.349Z,74.33
2018-01-22T12:13:19.872Z,74.52
2018-01-22T12:15:47.439Z,74.34
2018-01-22T12:18:14.982Z,74.55
2018-01-22T12:20:42.530Z,74.57
2018-01-22T12:23:10.044Z,74.91
2018-01-22T12:25:37.584Z,74.62
2018-01-22T12:28:05.164Z,74.19
2018-01-22T12:30:32.726Z,74.09
2018-01-22T12:33:00.264Z,73.84
2018-01-22T12:35:27.768Z,73.73
2018-01-22T12:37:55.326Z,73.35
2018-01-22T12:40:22.849Z,73.31
2018-01-22T12:42:50.341Z,73.74
2018-01-22T12:45:19.548Z,74.38
2018-01-22T12:47:47.041Z,74.79
2018-01-22T12:50:14.588Z,75.52
2018-01-22T12:52:42.288Z,75.89
2018-01-22T12:55:09.839Z,76.68
2018-01-22T12:57:37.380Z,77.14
2018-01-22T13:00:04.856Z,77.62
2018-01-22T13:02:32.402Z,77.92
2018-01-22T13:04:59.884Z,78.10
2018-01-22T13:07:27.515Z,78.36
2018-01-22T13:09:55.016Z,80.61
2018-01-22T13:12:22.664Z,79.13
2018-01-22T13:14:50.190Z,77.97
2018-01-22T13:17:20.785Z,78.08
2018-01-22T13:19:48.396Z,78.83
2018-01-22T13:22:15.949Z,79.12
2018-01-22T13:24:43.578Z,79.52
2018-01-22T13:27:11.143Z,79.66
2018-01-22T13:29:38.662Z,80.04
2018-01-22T13:32:11.648Z,80.22
2018-01-22T13:34:39.218Z,80.33
2018-01-22T13:37:06.771Z,80.36
2018-01-22T13:39:34.396Z,80.82
2018-01-22T13:42:01.937Z,80.63
2018-01-22T13:44:29.490Z,80.66
2018-01-22T13:46:56.939Z,81.60
2018-01-22T13:49:24.622Z,81.72
2018-01-22T13:52:06.331Z,81.84
2018-01-22T13:54:33.873Z,81.87
2018-01-22T13:57:01.365Z,82.65
2018-01-22T13:59:28.832Z,83.09
2018-01-22T14:01:57.082Z,82.92
2018-01-22T14:04:24.685Z,83.26
2018-01-22T14:06:52.215Z,83.62
2018-01-22T14:09:19.755Z,83.53
2018-01-22T14:11:47.205Z,83.78
2018-01-22T14:14:14.744Z,83.66
2018-01-22T14:16:42.220Z,84.26
2018-01-22T14:19:09.771Z,84.84
2018-01-22T14:21:56.492Z,84.46
2018-01-22T14:24:24.017Z,84.49
2018-01-22T14:26:51.508Z,84.65
2018-01-22T14:29:20.809Z,84.87
2018-01-22T14:31:48.498Z,85.18
2018-01-22T14:34:15.999Z,85.05
2018-01-22T14:36:44.796Z,85.46
2018-01-22T14:39:12.360Z,85.65
2018-01-22T14:41:40.060Z,85.53
2018-01-22T14:44:07.522Z,85.53
2018-01-22T14:46:35.132Z,85.68
2018-01-22T14:49:02.645Z,85.82
2018-01-22T14:51:30.117Z,85.83
2018-01-22T14:53:57.611Z,85.46
2018-01-22T14:56:25.488Z,85.58
2018-01-22T14:58:52.994Z,85.64
2018-01-22T15:01:20.512Z,85.91
2018-01-22T15:03:48.094Z,85.97
2018-01-22T15:06:16.448Z,86.12
2018-01-22T15:08:44.106Z,86.32
2018-01-22T15:11:16.589Z,86.25
2018-01-22T15:13:44.103Z,86.35
2018-01-22T15:16:11.543Z,85.83
2018-01-22T15:18:40.077Z,86.12
2018-01-22T15:21:07.539Z,86.32
2018-01-22T15:23:35.003Z,86.46
2018-01-22T15:28:38.196Z,86.69
2018-01-22T15:31:05.666Z,86.72
2018-01-22T15:33:33.336Z,86.60
2018-01-22T15:36:00.811Z,86.55
2018-01-22T15:38:28.409Z,86.81
2018-01-22T15:40:55.909Z,86.79
2018-01-22T15:43:23.431Z,86.90
2018-01-22T15:45:51.080Z,86.84
2018-01-22T15:48:18.586Z,87.00
2018-01-22T15:50:46.319Z,87.33
2018-01-22T15:53:13.869Z,87.29
2018-01-22T15:55:41.451Z,87.20
2018-01-22T15:58:09.047Z,87.44
2018-01-22T16:00:37.064Z,87.18
2018-01-22T16:03:04.629Z,87.43
2018-01-22T16:05:32.123Z,87.58
2018-01-22T16:07:59.772Z,87.48
2018-01-22T16:10:27.317Z,87.44
2018-01-22T16:12:54.876Z,87.49
2018-01-22T16:15:22.399Z,87.35
2018-01-22T16:17:49.902Z,87.54
2018-01-22T16:20:17.603Z,87.59
2018-01-22T16:22:45.169Z,87.70
2018-01-22T16:25:12.719Z,87.71
2018-01-22T16:27:40.241Z,87.87
2018-01-22T16:30:07.858Z,87.86
2018-01-22T16:32:35.381Z,87.89
2018-01-22T16:35:02.866Z,87.63
2018-01-22T16:37:30.424Z,87.90
2018-01-22T16:39:57.937Z,87.85
2018-01-22T16:42:25.489Z,88.16
2018-01-22T16:44:53.095Z,88.42
2018-01-22T16:47:26.033Z,88.31
2018-01-22T16:49:53.524Z,88.68
2018-01-22T16:52:21.083Z,88.75
2018-01-22T16:54:48.902Z,88.88
2018-01-22T16:57:16.493Z,88.87
2018-01-22T16:59:44.026Z,89.29
2018-01-22T17:02:11.471Z,89.19
2018-01-22T17:04:39.056Z,89.50
2018-01-22T17:07:06.562Z,89.42
2018-01-22T17:09:34.086Z,89.52
2018-01-22T17:12:01.634Z,89.73
2018-01-22T17:14:29.192Z,89.79
2018-01-22T17:16:56.678Z,89.84
2018-01-22T17:19:24.234Z,89.93
2018-01-22T17:21:51.783Z,90.17
2018-01-22T17:24:19.288Z,90.20
2018-01-22T17:26:46.884Z,90.34
2018-01-22T17:29:14.543Z,90.42
2018-01-22T17:31:42.043Z,90.31
2018-01-22T17:34:09.547Z,90.34
2018-01-22T17:36:37.021Z,90.53
2018-01-22T17:39:04.901Z,90.65
2018-01-22T17:41:32.414Z,90.61
2018-01-22T17:44:00.025Z,90.51
2018-01-22T17:46:27.722Z,90.79
2018-01-22T17:48:55.240Z,90.72
2018-01-22T17:51:22.951Z,90.84
2018-01-22T17:53:51.459Z,90.76
2018-01-22T17:56:20.065Z,90.63
2018-01-22T17:58:47.828Z,90.72
2018-01-22T18:01:15.373Z,90.84
2018-01-22T18:03:43.063Z,91.00
2018-01-22T18:06:10.738Z,91.19
2018-01-22T18:08:39.141Z,91.23
2018-01-22T18:11:07.355Z,91.12
2018-01-22T18:13:34.925Z,91.12
2018-01-22T18:16:02.566Z,91.28
2018-01-22T18:18:30.197Z,91.47
2018-01-22T18:20:57.747Z,91.75
2018-01-22T18:23:25.409Z,92.15
2018-01-22T18:25:53.332Z,92.39
2018-01-22T18:28:21.018Z,92.45
2018-01-22T18:37:32.739Z,92.36
2018-01-22T18:40:00.309Z,92.45
2018-01-22T18:42:27.873Z,92.44
2018-01-22T18:44:55.434Z,92.47
2018-01-22T18:47:23.823Z,92.45
2018-01-22T18:49:51.726Z,92.45
2018-01-22T18:52:19.535Z,92.42
2018-01-22T18:54:47.311Z,92.33
2018-01-22T18:57:14.939Z,92.48
2018-01-22T18:59:42.613Z,92.59
2018-01-22T19:02:10.361Z,92.60
2018-01-22T19:04:38.049Z,92.64
2018-01-22T19:07:05.638Z,92.55
2018-01-22T19:09:33.414Z,92.29
2018-01-22T19:12:02.646Z,92.12
2018-01-22T19:14:30.683Z,92.25
2018-01-22T19:16:58.632Z,92.31
2018-01-22T19:19:26.504Z,92.20
2018-01-22T19:21:54.287Z,92.04
2018-01-22T19:24:23.534Z,92.06
2018-01-22T19:26:51.913Z,91.98
2018-01-22T19:29:19.712Z,92.06
2018-01-22T19:31:47.394Z,91.98
2018-01-22T19:34:15.092Z,92.08
2018-01-22T19:36:42.925Z,92.21
2018-01-22T19:39:10.718Z,92.16
2018-01-22T19:41:38.491Z,92.33
2018-01-22T19:44:05.975Z,92.53
2018-01-22T19:46:34.429Z,92.88
2018-01-22T19:49:01.922Z,92.90
2018-01-22T19:51:29.449Z,92.92
2018-01-22T19:53:56.969Z,92.81
2018-01-22T19:56:25.227Z,92.89
2018-01-22T19:58:52.786Z,92.85
2018-01-22T20:01:20.392Z,92.63
2018-01-22T20:03:47.912Z,92.37
2018-01-22T20:06:15.509Z,92.33
2018-01-22T20:08:43.029Z,92.12
2018-01-22T20:11:10.549Z,92.01
2018-01-22T20:13:38.123Z,91.83
2018-01-22T20:16:05.798Z,91.79
2018-01-22T20:18:33.344Z,91.88
2018-01-22T20:21:05.963Z,91.80
2018-01-22T20:23:33.457Z,91.93
2018-01-22T20:26:01.033Z,91.92
2018-01-22T20:28:28.657Z,91.92
2018-01-22T20:30:56.170Z,91.81
2018-01-22T20:33:23.854Z,91.61
2018-01-22T20:35:51.493Z,91.76
2018-01-22T20:38:19.035Z,91.83
2018-01-22T20:40:46.666Z,91.78
2018-01-22T20:43:14.248Z,91.76
2018-01-22T20:45:42.050Z,91.64
2018-01-22T20:48:10.478Z,91.62
2018-01-22T20:50:38.819Z,91.75
2018-01-22T20:53:06.314Z,91.54
2018-01-22T20:55:33.843Z,91.52
2018-01-22T20:58:01.301Z,91.43
2018-01-22T21:00:28.838Z,91.40
2018-01-22T21:02:56.342Z,91.36
2018-01-22T21:05:23.922Z,91.39
2018-01-22T21:07:51.555Z,91.52
2018-01-22T21:10:19.052Z,91.38
2018-01-22T21:12:46.684Z,91.43
2018-01-22T21:15:14.875Z,91.60
2018-01-22T21:17:42.395Z,91.88
2018-01-22T21:20:09.972Z,91.92
2018-01-22T21:22:37.460Z,91.96
2018-01-22T21:25:05.070Z,91.96
2018-01-22T21:27:32.633Z,92.02
2018-01-22T21:30:00.218Z,92.11
2018-01-22T21:32:27.778Z,92.07
2018-01-22T21:34:55.277Z,92.03
2018-01-22T21:37:22.736Z,92.07
2018-01-22T21:39:50.291Z,91.92
2018-01-22T21:42:17.759Z,91.82
2018-01-22T21:44:45.255Z,92.10
2018-01-22T21:47:12.762Z,92.18
2018-01-22T21:49:40.232Z,92.19
2018-01-22T21:52:08.779Z,92.36
2018-01-22T21:54:36.357Z,91.79
2018-01-22T21:57:03.926Z,91.62
2018-01-22T21:59:32.407Z,91.62
2018-01-22T22:01:59.943Z,91.76
2018-01-22T22:04:27.423Z,91.85
2018-01-22T22:06:54.944Z,91.68
2018-01-22T22:09:22.515Z,91.45
2018-01-22T22:11:50.063Z,91.34
2018-01-22T22:14:17.575Z,91.17
2018-01-22T22:16:45.094Z,91.32
2018-01-22T22:19:12.633Z,91.38
2018-01-22T22:21:40.216Z,91.53
2018-01-22T22:24:07.798Z,91.55
2018-01-22T22:26:35.375Z,91.48
2018-01-22T22:29:02.944Z,91.62
2018-01-22T22:31:30.466Z,91.66
2018-01-22T22:33:57.960Z,91.69
2018-01-22T22:36:25.418Z,91.79
2018-01-22T22:38:52.926Z,91.85
2018-01-22T22:41:20.459Z,92.07
2018-01-22T22:43:47.950Z,92.24
2018-01-22T22:46:15.517Z,92.16
2018-01-22T22:48:43.006Z,91.96
2018-01-22T22:51:10.515Z,91.64
2018-01-22T22:53:38.018Z,92.52
2018-01-22T22:56:05.550Z,91.55
2018-01-22T22:58:33.004Z,90.97
2018-01-22T23:01:00.496Z,90.63
2018-01-22T23:03:28.194Z,90.94
2018-01-22T23:05:55.886Z,90.20
2018-01-22T23:08:23.392Z,90.13
2018-01-22T23:10:50.856Z,90.28
2018-01-22T23:13:18.365Z,90.28
2018-01-22T23:15:45.842Z,90.32
2018-01-22T23:18:14.129Z,90.59
2018-01-22T23:20:41.659Z,90.38
2018-01-22T23:23:09.157Z,90.44
2018-01-22T23:25:36.640Z,90.79
2018-01-22T23:28:04.230Z,91.17
2018-01-22T23:30:36.760Z,91.29
2018-01-22T23:33:04.336Z,91.05
2018-01-22T23:35:31.838Z,90.50
2018-01-22T23:37:59.309Z,90.30
2018-01-22T23:40:26.780Z,89.87
2018-01-22T23:42:54.372Z,89.56
2018-01-22T23:45:22.003Z,89.46
2018-01-22T23:47:49.480Z,89.55
2018-01-22T23:50:17.026Z,89.70
2018-01-22T23:52:44.533Z,89.86
2018-01-22T23:55:12.003Z,90.05
2018-01-22T23:57:39.580Z,90.06
